sensor_id;sensor_type;location;lat;lon;timestamp;pressure;altitude;pressure_sealevel;temperature;humidity
20111;BME280;10216;42.658;23.248;2023-07-29T00:00:19;93622.38;;;18.26;62.00
20111;BME280;10216;42.658;23.248;2023-07-29T00:02:45;93629.22;;;18.20;62.24
20111;BME280;10216;42.658;23.248;2023-07-29T00:05:11;93625.63;;;18.21;62.32
20111;BME280;10216;42.658;23.248;2023-07-29T00:07:36;93621.84;;;18.17;62.80
20111;BME280;10216;42.658;23.248;2023-07-29T00:10:02;93633.66;;;18.13;63.42
20111;BME280;10216;42.658;23.248;2023-07-29T00:12:28;93630.47;;;18.11;63.36
20111;BME280;10216;42.658;23.248;2023-07-29T00:14:54;93627.94;;;18.05;63.84
20111;BME280;10216;42.658;23.248;2023-07-29T00:17:19;93618.75;;;18.02;64.14
20111;BME280;10216;42.658;23.248;2023-07-29T00:19:45;93618.19;;;18.00;64.80
20111;BME280;10216;42.658;23.248;2023-07-29T00:22:11;93619.00;;;17.94;64.59
20111;BME280;10216;42.658;23.248;2023-07-29T00:24:36;93617.44;;;17.93;64.02
20111;BME280;10216;42.658;23.248;2023-07-29T00:27:01;93619.66;;;17.89;63.73
20111;BME280;10216;42.658;23.248;2023-07-29T00:29:27;93618.66;;;17.90;64.33
20111;BME280;10216;42.658;23.248;2023-07-29T00:31:52;93607.88;;;17.87;64.63
20111;BME280;10216;42.658;23.248;2023-07-29T00:34:17;93608.91;;;17.86;64.72
20111;BME280;10216;42.658;23.248;2023-07-29T00:36:45;93616.69;;;17.86;65.21
20111;BME280;10216;42.658;23.248;2023-07-29T00:39:10;93604.94;;;17.77;65.65
20111;BME280;10216;42.658;23.248;2023-07-29T00:41:36;93611.50;;;17.86;65.47
20111;BME280;10216;42.658;23.248;2023-07-29T00:44:01;93596.41;;;17.70;66.16
20111;BME280;10216;42.658;23.248;2023-07-29T00:46:28;93606.38;;;17.73;65.93
20111;BME280;10216;42.658;23.248;2023-07-29T00:48:53;93601.59;;;17.70;65.57
20111;BME280;10216;42.658;23.248;2023-07-29T00:51:19;93607.22;;;17.67;65.86
20111;BME280;10216;42.658;23.248;2023-07-29T00:53:44;93606.19;;;17.68;65.08
20111;BME280;10216;42.658;23.248;2023-07-29T00:56:10;93606.25;;;17.61;66.00
20111;BME280;10216;42.658;23.248;2023-07-29T00:58:36;93600.06;;;17.55;66.13
20111;BME280;10216;42.658;23.248;2023-07-29T01:01:01;93600.69;;;17.51;66.39
20111;BME280;10216;42.658;23.248;2023-07-29T01:03:27;93598.88;;;17.51;66.23
20111;BME280;10216;42.658;23.248;2023-07-29T01:14:07;93595.34;;;17.39;67.04
20111;BME280;10216;42.658;23.248;2023-07-29T01:16:39;93589.97;;;17.41;67.34
20111;BME280;10216;42.658;23.248;2023-07-29T01:19:06;93600.94;;;17.36;66.85
20111;BME280;10216;42.658;23.248;2023-07-29T01:21:35;93595.19;;;17.34;67.11
20111;BME280;10216;42.658;23.248;2023-07-29T01:24:02;93603.78;;;17.35;67.07
20111;BME280;10216;42.658;23.248;2023-07-29T01:26:28;93609.97;;;17.34;66.82
20111;BME280;10216;42.658;23.248;2023-07-29T01:28:56;93597.81;;;17.28;67.30
20111;BME280;10216;42.658;23.248;2023-07-29T01:31:33;93597.44;;;17.24;67.87
20111;BME280;10216;42.658;23.248;2023-07-29T01:34:11;93602.63;;;17.24;67.67
20111;BME280;10216;42.658;23.248;2023-07-29T01:36:39;93606.81;;;17.25;67.14
20111;BME280;10216;42.658;23.248;2023-07-29T01:39:07;93600.84;;;17.18;68.04
20111;BME280;10216;42.658;23.248;2023-07-29T01:41:34;93602.47;;;17.12;68.14
20111;BME280;10216;42.658;23.248;2023-07-29T01:44:00;93598.88;;;17.13;68.23
20111;BME280;10216;42.658;23.248;2023-07-29T01:46:26;93605.66;;;17.08;67.91
20111;BME280;10216;42.658;23.248;2023-07-29T01:48:52;93608.09;;;17.03;68.35
20111;BME280;10216;42.658;23.248;2023-07-29T01:51:17;93590.94;;;17.02;68.20
20111;BME280;10216;42.658;23.248;2023-07-29T01:53:43;93595.16;;;16.96;68.51
20111;BME280;10216;42.658;23.248;2023-07-29T01:56:08;93597.56;;;16.98;68.74
20111;BME280;10216;42.658;23.248;2023-07-29T01:58:34;93592.97;;;16.93;69.01
20111;BME280;10216;42.658;23.248;2023-07-29T02:00:59;93600.75;;;16.93;69.33
20111;BME280;10216;42.658;23.248;2023-07-29T02:03:24;93598.38;;;16.92;69.15
20111;BME280;10216;42.658;23.248;2023-07-29T02:05:50;93598.38;;;16.92;69.38
20111;BME280;10216;42.658;23.248;2023-07-29T02:08:15;93599.19;;;16.92;69.31
20111;BME280;10216;42.658;23.248;2023-07-29T02:10:40;93596.59;;;16.92;69.42
20111;BME280;10216;42.658;23.248;2023-07-29T02:13:08;93600.34;;;16.96;69.78
20111;BME280;10216;42.658;23.248;2023-07-29T02:15:33;93598.78;;;16.89;69.33
20111;BME280;10216;42.658;23.248;2023-07-29T02:17:59;93599.19;;;16.86;69.62
20111;BME280;10216;42.658;23.248;2023-07-29T02:20:24;93593.00;;;16.80;69.85
20111;BME280;10216;42.658;23.248;2023-07-29T02:22:49;93603.59;;;16.78;70.07
20111;BME280;10216;42.658;23.248;2023-07-29T02:25:16;93602.00;;;16.77;70.20
20111;BME280;10216;42.658;23.248;2023-07-29T02:27:41;93603.34;;;16.87;69.96
20111;BME280;10216;42.658;23.248;2023-07-29T02:30:07;93599.63;;;16.76;70.07
20111;BME280;10216;42.658;23.248;2023-07-29T02:32:34;93605.41;;;16.71;70.15
20111;BME280;10216;42.658;23.248;2023-07-29T02:35:00;93609.22;;;16.62;70.78
20111;BME280;10216;42.658;23.248;2023-07-29T02:37:25;93607.44;;;16.63;70.88
20111;BME280;10216;42.658;23.248;2023-07-29T02:39:51;93605.22;;;16.60;70.74
20111;BME280;10216;42.658;23.248;2023-07-29T02:42:16;93607.78;;;16.60;71.19
20111;BME280;10216;42.658;23.248;2023-07-29T02:44:42;93602.44;;;16.55;71.37
20111;BME280;10216;42.658;23.248;2023-07-29T02:47:07;93604.63;;;16.51;71.52
20111;BME280;10216;42.658;23.248;2023-07-29T02:49:32;93600.06;;;16.47;71.52
20111;BME280;10216;42.658;23.248;2023-07-29T02:51:58;93607.41;;;16.50;71.43
20111;BME280;10216;42.658;23.248;2023-07-29T02:54:23;93605.63;;;16.44;71.71
20111;BME280;10216;42.658;23.248;2023-07-29T02:56:50;93592.69;;;16.37;72.41
20111;BME280;10216;42.658;23.248;2023-07-29T02:59:15;93615.19;;;16.43;72.46
20111;BME280;10216;42.658;23.248;2023-07-29T03:01:40;93615.63;;;16.40;72.38
20111;BME280;10216;42.658;23.248;2023-07-29T03:04:06;93614.81;;;16.33;72.79
20111;BME280;10216;42.658;23.248;2023-07-29T03:06:31;93616.03;;;16.24;73.24
20111;BME280;10216;42.658;23.248;2023-07-29T03:08:56;93617.63;;;16.25;73.14
20111;BME280;10216;42.658;23.248;2023-07-29T03:11:22;93624.59;;;16.24;73.32
20111;BME280;10216;42.658;23.248;2023-07-29T03:13:47;93622.19;;;16.23;73.06
20111;BME280;10216;42.658;23.248;2023-07-29T03:16:14;93611.84;;;16.16;73.07
20111;BME280;10216;42.658;23.248;2023-07-29T03:18:40;93624.78;;;16.23;73.40
20111;BME280;10216;42.658;23.248;2023-07-29T03:21:06;93616.81;;;16.24;72.95
20111;BME280;10216;42.658;23.248;2023-07-29T03:23:32;93621.81;;;16.26;72.79
20111;BME280;10216;42.658;23.248;2023-07-29T03:25:59;93627.19;;;16.24;72.76
20111;BME280;10216;42.658;23.248;2023-07-29T03:28:26;93628.38;;;16.28;73.05
20111;BME280;10216;42.658;23.248;2023-07-29T03:30:56;93624.22;;;16.21;73.46
20111;BME280;10216;42.658;23.248;2023-07-29T03:33:22;93623.97;;;16.35;73.91
20111;BME280;10216;42.658;23.248;2023-07-29T03:35:48;93624.00;;;16.42;73.17
20111;BME280;10216;42.658;23.248;2023-07-29T03:38:14;93619.59;;;16.49;72.85
20111;BME280;10216;42.658;23.248;2023-07-29T03:40:40;93621.97;;;16.51;73.38
20111;BME280;10216;42.658;23.248;2023-07-29T03:43:06;93617.38;;;16.59;72.93
20111;BME280;10216;42.658;23.248;2023-07-29T03:45:34;93614.41;;;16.56;72.79
20111;BME280;10216;42.658;23.248;2023-07-29T03:47:59;93619.59;;;16.62;72.60
20111;BME280;10216;42.658;23.248;2023-07-29T03:50:25;93621.56;;;16.67;72.78
20111;BME280;10216;42.658;23.248;2023-07-29T03:52:51;93619.94;;;16.72;72.79
20111;BME280;10216;42.658;23.248;2023-07-29T03:55:16;93622.53;;;16.79;73.46
20111;BME280;10216;42.658;23.248;2023-07-29T03:57:42;93621.34;;;16.82;73.19
20111;BME280;10216;42.658;23.248;2023-07-29T04:00:07;93619.94;;;16.79;73.17
20111;BME280;10216;42.658;23.248;2023-07-29T04:02:34;93628.31;;;16.81;72.94
20111;BME280;10216;42.658;23.248;2023-07-29T04:05:03;93629.50;;;16.78;72.39
20111;BME280;10216;42.658;23.248;2023-07-29T04:07:29;93629.91;;;16.82;72.61
20111;BME280;10216;42.658;23.248;2023-07-29T04:09:55;93640.66;;;16.92;73.26
20111;BME280;10216;42.658;23.248;2023-07-29T04:12:20;93634.06;;;16.96;72.97
20111;BME280;10216;42.658;23.248;2023-07-29T04:14:47;93635.47;;;16.99;72.68
20111;BME280;10216;42.658;23.248;2023-07-29T04:17:12;93632.44;;;17.02;72.74
20111;BME280;10216;42.658;23.248;2023-07-29T04:19:38;93625.25;;;17.04;72.86
20111;BME280;10216;42.658;23.248;2023-07-29T04:22:03;93631.84;;;17.06;72.62
20111;BME280;10216;42.658;23.248;2023-07-29T04:24:28;93629.63;;;17.10;72.84
20111;BME280;10216;42.658;23.248;2023-07-29T04:26:54;93627.63;;;17.12;72.56
20111;BME280;10216;42.658;23.248;2023-07-29T04:29:19;93631.41;;;17.09;72.66
20111;BME280;10216;42.658;23.248;2023-07-29T04:31:45;93628.63;;;17.11;72.06
20111;BME280;10216;42.658;23.248;2023-07-29T04:34:11;93634.97;;;17.22;72.01
20111;BME280;10216;42.658;23.248;2023-07-29T04:36:36;93636.50;;;17.29;72.13
20111;BME280;10216;42.658;23.248;2023-07-29T04:39:02;93638.13;;;17.30;71.84
20111;BME280;10216;42.658;23.248;2023-07-29T04:41:27;93641.31;;;17.32;71.60
20111;BME280;10216;42.658;23.248;2023-07-29T04:43:52;93642.47;;;17.36;71.40
20111;BME280;10216;42.658;23.248;2023-07-29T04:46:18;93637.88;;;17.38;71.51
20111;BME280;10216;42.658;23.248;2023-07-29T04:48:43;93636.47;;;17.42;70.56
20111;BME280;10216;42.658;23.248;2023-07-29T04:51:08;93638.41;;;17.53;71.58
20111;BME280;10216;42.658;23.248;2023-07-29T04:53:34;93639.81;;;17.56;70.43
20111;BME280;10216;42.658;23.248;2023-07-29T04:56:02;93639.16;;;17.67;71.07
20111;BME280;10216;42.658;23.248;2023-07-29T04:58:27;93647.50;;;17.76;71.10
20111;BME280;10216;42.658;23.248;2023-07-29T05:00:55;93650.75;;;17.71;71.14
20111;BME280;10216;42.658;23.248;2023-07-29T05:03:20;93659.28;;;17.78;70.60
20111;BME280;10216;42.658;23.248;2023-07-29T05:05:46;93662.25;;;17.82;70.41
20111;BME280;10216;42.658;23.248;2023-07-29T05:08:11;93662.59;;;17.92;69.72
20111;BME280;10216;42.658;23.248;2023-07-29T05:10:36;93664.94;;;18.00;68.96
20111;BME280;10216;42.658;23.248;2023-07-29T05:13:02;93670.88;;;18.07;69.33
20111;BME280;10216;42.658;23.248;2023-07-29T05:15:27;93672.81;;;18.18;69.54
20111;BME280;10216;42.658;23.248;2023-07-29T05:17:53;93672.38;;;18.21;69.22
20111;BME280;10216;42.658;23.248;2023-07-29T05:20:18;93683.09;;;18.31;69.22
20111;BME280;10216;42.658;23.248;2023-07-29T05:22:43;93681.03;;;18.40;68.95
20111;BME280;10216;42.658;23.248;2023-07-29T05:25:09;93670.69;;;18.33;68.82
20111;BME280;10216;42.658;23.248;2023-07-29T05:27:34;93678.38;;;18.47;68.17
20111;BME280;10216;42.658;23.248;2023-07-29T05:30:00;93669.38;;;18.49;68.34
20111;BME280;10216;42.658;23.248;2023-07-29T05:32:25;93671.66;;;18.64;68.31
20111;BME280;10216;42.658;23.248;2023-07-29T05:34:50;93675.81;;;18.71;68.21
20111;BME280;10216;42.658;23.248;2023-07-29T05:37:16;93680.09;;;18.84;67.85
20111;BME280;10216;42.658;23.248;2023-07-29T05:39:41;93675.03;;;18.89;68.27
20111;BME280;10216;42.658;23.248;2023-07-29T05:42:07;93678.22;;;18.91;67.66
20111;BME280;10216;42.658;23.248;2023-07-29T05:44:33;93678.94;;;18.98;66.13
20111;BME280;10216;42.658;23.248;2023-07-29T05:46:58;93684.38;;;19.15;66.33
20111;BME280;10216;42.658;23.248;2023-07-29T05:49:24;93679.09;;;19.22;66.31
20111;BME280;10216;42.658;23.248;2023-07-29T05:51:49;93682.94;;;19.37;66.53
20111;BME280;10216;42.658;23.248;2023-07-29T05:54:17;93674.41;;;19.48;65.90
20111;BME280;10216;42.658;23.248;2023-07-29T05:56:43;93673.66;;;19.60;65.29
20111;BME280;10216;42.658;23.248;2023-07-29T05:59:08;93686.06;;;19.76;64.82
20111;BME280;10216;42.658;23.248;2023-07-29T06:01:33;93685.66;;;19.79;65.33
20111;BME280;10216;42.658;23.248;2023-07-29T06:04:00;93681.06;;;19.93;64.92
20111;BME280;10216;42.658;23.248;2023-07-29T06:06:25;93685.16;;;20.00;64.15
20111;BME280;10216;42.658;23.248;2023-07-29T06:08:50;93671.03;;;20.19;62.65
20111;BME280;10216;42.658;23.248;2023-07-29T06:11:16;93679.16;;;20.41;62.52
20111;BME280;10216;42.658;23.248;2023-07-29T06:13:41;93676.66;;;20.46;62.02
20111;BME280;10216;42.658;23.248;2023-07-29T06:16:07;93677.72;;;20.45;61.87
20111;BME280;10216;42.658;23.248;2023-07-29T06:18:32;93671.47;;;20.58;61.58
20111;BME280;10216;42.658;23.248;2023-07-29T06:20:57;93667.84;;;20.71;61.05
20111;BME280;10216;42.658;23.248;2023-07-29T06:23:23;93669.56;;;20.88;60.93
20111;BME280;10216;42.658;23.248;2023-07-29T06:25:48;93666.81;;;21.07;61.44
20111;BME280;10216;42.658;23.248;2023-07-29T06:28:14;93663.97;;;21.20;60.50
20111;BME280;10216;42.658;23.248;2023-07-29T06:30:39;93669.50;;;21.35;60.02
20111;BME280;10216;42.658;23.248;2023-07-29T06:33:05;93664.22;;;21.58;58.27
20111;BME280;10216;42.658;23.248;2023-07-29T06:35:31;93663.38;;;21.81;57.81
20111;BME280;10216;42.658;23.248;2023-07-29T06:37:56;93665.56;;;22.01;57.98
20111;BME280;10216;42.658;23.248;2023-07-29T06:40:21;93660.69;;;22.04;57.25
20111;BME280;10216;42.658;23.248;2023-07-29T06:42:47;93656.00;;;22.06;56.70
20111;BME280;10216;42.658;23.248;2023-07-29T06:45:12;93658.88;;;22.22;56.08
20111;BME280;10216;42.658;23.248;2023-07-29T06:47:38;93659.59;;;22.50;56.08
20111;BME280;10216;42.658;23.248;2023-07-29T06:50:03;93663.19;;;22.61;54.84
20111;BME280;10216;42.658;23.248;2023-07-29T06:52:29;93661.34;;;22.62;54.68
20111;BME280;10216;42.658;23.248;2023-07-29T06:54:54;93674.09;;;22.58;54.53
20111;BME280;10216;42.658;23.248;2023-07-29T06:57:20;93666.59;;;22.78;53.80
20111;BME280;10216;42.658;23.248;2023-07-29T06:59:45;93669.53;;;22.82;52.48
20111;BME280;10216;42.658;23.248;2023-07-29T07:02:10;93674.59;;;23.05;53.29
20111;BME280;10216;42.658;23.248;2023-07-29T07:04:36;93678.75;;;23.23;51.92
20111;BME280;10216;42.658;23.248;2023-07-29T07:07:01;93680.81;;;23.43;51.23
20111;BME280;10216;42.658;23.248;2023-07-29T07:09:27;93662.31;;;23.71;50.46
20111;BME280;10216;42.658;23.248;2023-07-29T07:11:52;93664.75;;;23.78;49.94
20111;BME280;10216;42.658;23.248;2023-07-29T07:14:17;93652.22;;;23.85;50.09
20111;BME280;10216;42.658;23.248;2023-07-29T07:16:43;93657.78;;;24.15;49.19
20111;BME280;10216;42.658;23.248;2023-07-29T07:19:09;93656.38;;;24.29;49.01
20111;BME280;10216;42.658;23.248;2023-07-29T07:21:34;93667.09;;;24.55;49.03
20111;BME280;10216;42.658;23.248;2023-07-29T07:24:00;93665.63;;;24.69;49.43
20111;BME280;10216;42.658;23.248;2023-07-29T07:26:25;93662.56;;;24.50;47.64
20111;BME280;10216;42.658;23.248;2023-07-29T07:28:50;93654.41;;;24.46;48.00
20111;BME280;10216;42.658;23.248;2023-07-29T07:31:16;93666.44;;;24.74;48.06
20111;BME280;10216;42.658;23.248;2023-07-29T07:33:42;93667.81;;;24.82;47.67
20111;BME280;10216;42.658;23.248;2023-07-29T07:36:07;93663.28;;;25.09;47.37
20111;BME280;10216;42.658;23.248;2023-07-29T07:38:33;93657.09;;;25.31;47.08
20111;BME280;10216;42.658;23.248;2023-07-29T07:40:58;93654.22;;;25.37;46.10
20111;BME280;10216;42.658;23.248;2023-07-29T07:43:24;93662.72;;;25.49;46.31
20111;BME280;10216;42.658;23.248;2023-07-29T07:45:49;93656.38;;;25.45;45.56
20111;BME280;10216;42.658;23.248;2023-07-29T07:48:15;93660.94;;;25.60;45.29
20111;BME280;10216;42.658;23.248;2023-07-29T07:50:42;93657.81;;;25.63;44.51
20111;BME280;10216;42.658;23.248;2023-07-29T07:53:07;93654.16;;;25.74;45.22
20111;BME280;10216;42.658;23.248;2023-07-29T07:55:33;93668.97;;;26.11;45.13
20111;BME280;10216;42.658;23.248;2023-07-29T07:57:58;93671.69;;;26.46;43.97
20111;BME280;10216;42.658;23.248;2023-07-29T08:00:24;93664.56;;;26.52;42.86
20111;BME280;10216;42.658;23.248;2023-07-29T08:02:49;93663.78;;;26.81;43.10
20111;BME280;10216;42.658;23.248;2023-07-29T08:05:14;93669.56;;;27.04;43.66
20111;BME280;10216;42.658;23.248;2023-07-29T08:07:40;93669.50;;;27.34;42.27
20111;BME280;10216;42.658;23.248;2023-07-29T08:10:06;93663.91;;;27.61;42.35
20111;BME280;10216;42.658;23.248;2023-07-29T08:12:32;93664.03;;;27.90;41.31
20111;BME280;10216;42.658;23.248;2023-07-29T08:14:57;93668.34;;;28.25;41.00
20111;BME280;10216;42.658;23.248;2023-07-29T08:17:23;93668.91;;;28.22;41.68
20111;BME280;10216;42.658;23.248;2023-07-29T08:19:48;93669.63;;;28.38;40.27
20111;BME280;10216;42.658;23.248;2023-07-29T08:22:14;93680.16;;;28.43;41.07
20111;BME280;10216;42.658;23.248;2023-07-29T08:24:39;93675.22;;;28.31;39.87
20111;BME280;10216;42.658;23.248;2023-07-29T08:27:05;93670.16;;;28.68;40.25
20111;BME280;10216;42.658;23.248;2023-07-29T08:29:30;93677.50;;;29.10;39.80
20111;BME280;10216;42.658;23.248;2023-07-29T08:31:56;93677.22;;;28.83;39.44
20111;BME280;10216;42.658;23.248;2023-07-29T08:34:21;93670.25;;;28.92;39.19
20111;BME280;10216;42.658;23.248;2023-07-29T08:36:46;93675.34;;;29.41;38.91
20111;BME280;10216;42.658;23.248;2023-07-29T08:39:12;93676.47;;;30.07;38.18
20111;BME280;10216;42.658;23.248;2023-07-29T08:41:43;93665.31;;;30.66;37.40
20111;BME280;10216;42.658;23.248;2023-07-29T08:44:25;93674.38;;;30.41;34.92
20111;BME280;10216;42.658;23.248;2023-07-29T08:46:52;93662.88;;;30.32;35.04
20111;BME280;10216;42.658;23.248;2023-07-29T08:49:19;93667.00;;;30.76;35.50
20111;BME280;10216;42.658;23.248;2023-07-29T08:51:48;93661.81;;;31.17;35.34
20111;BME280;10216;42.658;23.248;2023-07-29T08:54:14;93659.72;;;31.73;34.52
20111;BME280;10216;42.658;23.248;2023-07-29T08:56:41;93663.53;;;31.81;34.76
20111;BME280;10216;42.658;23.248;2023-07-29T08:59:07;93661.66;;;31.95;33.86
20111;BME280;10216;42.658;23.248;2023-07-29T09:01:33;93659.06;;;32.53;33.55
20111;BME280;10216;42.658;23.248;2023-07-29T09:03:59;93660.34;;;32.78;32.73
20111;BME280;10216;42.658;23.248;2023-07-29T09:06:24;93660.56;;;31.96;31.05
20111;BME280;10216;42.658;23.248;2023-07-29T09:08:51;93653.97;;;32.43;32.00
20111;BME280;10216;42.658;23.248;2023-07-29T09:11:18;93653.59;;;32.36;31.61
20111;BME280;10216;42.658;23.248;2023-07-29T09:13:45;93648.19;;;33.39;31.66
20111;BME280;10216;42.658;23.248;2023-07-29T09:16:11;93645.56;;;33.17;31.81
20111;BME280;10216;42.658;23.248;2023-07-29T09:18:37;93642.97;;;34.39;30.04
20111;BME280;10216;42.658;23.248;2023-07-29T09:21:03;93644.53;;;34.66;29.60
20111;BME280;10216;42.658;23.248;2023-07-29T09:23:38;93645.03;;;34.94;29.65
20111;BME280;10216;42.658;23.248;2023-07-29T09:26:04;93636.25;;;34.41;29.69
20111;BME280;10216;42.658;23.248;2023-07-29T09:28:37;93645.72;;;35.20;29.35
20111;BME280;10216;42.658;23.248;2023-07-29T09:31:03;93644.34;;;35.22;27.66
20111;BME280;10216;42.658;23.248;2023-07-29T09:33:29;93642.66;;;35.47;28.79
20111;BME280;10216;42.658;23.248;2023-07-29T09:35:56;93636.00;;;35.62;27.49
20111;BME280;10216;42.658;23.248;2023-07-29T09:38:27;93629.47;;;34.53;28.48
20111;BME280;10216;42.658;23.248;2023-07-29T09:40:55;93638.34;;;35.26;28.02
20111;BME280;10216;42.658;23.248;2023-07-29T09:43:25;93633.16;;;35.96;27.20
20111;BME280;10216;42.658;23.248;2023-07-29T09:45:52;93632.00;;;36.35;27.19
20111;BME280;10216;42.658;23.248;2023-07-29T09:48:22;93637.44;;;35.89;27.68
20111;BME280;10216;42.658;23.248;2023-07-29T09:50:47;93628.28;;;35.98;26.60
20111;BME280;10216;42.658;23.248;2023-07-29T09:53:12;93625.50;;;36.78;26.55
20111;BME280;10216;42.658;23.248;2023-07-29T09:55:39;93625.84;;;37.67;26.37
20111;BME280;10216;42.658;23.248;2023-07-29T09:58:04;93622.59;;;36.29;26.61
20111;BME280;10216;42.658;23.248;2023-07-29T10:00:33;93625.44;;;36.87;27.05
20111;BME280;10216;42.658;23.248;2023-07-29T10:03:00;93622.13;;;37.71;25.46
20111;BME280;10216;42.658;23.248;2023-07-29T10:05:27;93614.91;;;38.36;25.34
20111;BME280;10216;42.658;23.248;2023-07-29T10:07:53;93614.19;;;37.87;24.45
20111;BME280;10216;42.658;23.248;2023-07-29T10:10:20;93611.06;;;38.09;26.38
20111;BME280;10216;42.658;23.248;2023-07-29T10:12:46;93614.00;;;38.72;25.72
20111;BME280;10216;42.658;23.248;2023-07-29T10:15:12;93613.50;;;38.02;24.87
20111;BME280;10216;42.658;23.248;2023-07-29T10:17:38;93603.66;;;38.18;25.62
20111;BME280;10216;42.658;23.248;2023-07-29T10:20:06;93595.84;;;36.83;25.70
20111;BME280;10216;42.658;23.248;2023-07-29T10:22:43;93593.34;;;36.66;25.68
20111;BME280;10216;42.658;23.248;2023-07-29T10:25:19;93593.28;;;37.44;25.53
20111;BME280;10216;42.658;23.248;2023-07-29T10:27:52;93586.84;;;37.81;25.56
20111;BME280;10216;42.658;23.248;2023-07-29T10:30:19;93579.59;;;38.62;25.39
20111;BME280;10216;42.658;23.248;2023-07-29T10:32:45;93589.88;;;39.31;24.07
20111;BME280;10216;42.658;23.248;2023-07-29T10:35:14;93589.16;;;39.97;23.36
20111;BME280;10216;42.658;23.248;2023-07-29T10:37:40;93587.63;;;39.33;22.77
20111;BME280;10216;42.658;23.248;2023-07-29T10:40:10;93576.84;;;38.46;23.69
20111;BME280;10216;42.658;23.248;2023-07-29T10:42:37;93573.16;;;37.99;23.59
20111;BME280;10216;42.658;23.248;2023-07-29T10:45:20;93574.97;;;38.35;24.03
20111;BME280;10216;42.658;23.248;2023-07-29T10:47:46;93574.97;;;39.50;24.04
20111;BME280;10216;42.658;23.248;2023-07-29T10:50:20;93572.28;;;40.00;23.94
20111;BME280;10216;42.658;23.248;2023-07-29T10:52:49;93569.00;;;40.65;23.58
20111;BME280;10216;42.658;23.248;2023-07-29T10:55:35;93566.84;;;40.93;22.54
20111;BME280;10216;42.658;23.248;2023-07-29T10:58:14;93569.03;;;41.52;22.16
20111;BME280;10216;42.658;23.248;2023-07-29T11:00:44;93559.09;;;40.30;21.81
20111;BME280;10216;42.658;23.248;2023-07-29T11:03:12;93560.75;;;39.33;23.53
20111;BME280;10216;42.658;23.248;2023-07-29T11:05:43;93561.81;;;39.79;22.58
20111;BME280;10216;42.658;23.248;2023-07-29T11:08:41;93564.84;;;40.48;25.06
20111;BME280;10216;42.658;23.248;2023-07-29T11:11:12;93554.44;;;40.27;23.39
20111;BME280;10216;42.658;23.248;2023-07-29T11:13:38;93551.09;;;40.95;23.05
20111;BME280;10216;42.658;23.248;2023-07-29T11:16:04;93549.41;;;40.87;23.29
20111;BME280;10216;42.658;23.248;2023-07-29T11:18:34;93545.88;;;40.06;22.97
20111;BME280;10216;42.658;23.248;2023-07-29T11:21:01;93546.25;;;40.43;24.32
20111;BME280;10216;42.658;23.248;2023-07-29T11:23:32;93560.03;;;41.94;23.65
20111;BME280;10216;42.658;23.248;2023-07-29T11:25:58;93563.78;;;42.42;20.46
20111;BME280;10216;42.658;23.248;2023-07-29T11:28:24;93553.97;;;41.74;21.95
20111;BME280;10216;42.658;23.248;2023-07-29T11:30:50;93546.78;;;42.12;20.65
20111;BME280;10216;42.658;23.248;2023-07-29T11:33:25;93546.38;;;42.39;21.78
20111;BME280;10216;42.658;23.248;2023-07-29T11:35:51;93542.03;;;43.02;22.19
20111;BME280;10216;42.658;23.248;2023-07-29T11:38:17;93539.28;;;42.61;21.54
20111;BME280;10216;42.658;23.248;2023-07-29T11:40:44;93541.22;;;44.76;20.27
20111;BME280;10216;42.658;23.248;2023-07-29T11:43:18;93540.41;;;44.58;20.25
20111;BME280;10216;42.658;23.248;2023-07-29T11:45:44;93538.47;;;44.69;19.72
20111;BME280;10216;42.658;23.248;2023-07-29T11:48:09;93541.34;;;45.36;19.54
20111;BME280;10216;42.658;23.248;2023-07-29T11:50:35;93539.88;;;43.14;19.04
20111;BME280;10216;42.658;23.248;2023-07-29T11:53:00;93522.97;;;42.88;20.74
20111;BME280;10216;42.658;23.248;2023-07-29T11:55:26;93530.03;;;44.74;20.19
20111;BME280;10216;42.658;23.248;2023-07-29T11:57:51;93530.44;;;43.45;20.20
20111;BME280;10216;42.658;23.248;2023-07-29T12:00:17;93527.78;;;45.36;19.16
20111;BME280;10216;42.658;23.248;2023-07-29T12:02:44;93521.94;;;45.70;18.25
20111;BME280;10216;42.658;23.248;2023-07-29T12:05:12;93519.09;;;44.60;18.96
20111;BME280;10216;42.658;23.248;2023-07-29T12:07:38;93515.50;;;44.27;19.61
20111;BME280;10216;42.658;23.248;2023-07-29T12:10:05;93507.97;;;43.34;20.10
20111;BME280;10216;42.658;23.248;2023-07-29T12:12:30;93508.31;;;44.70;19.92
20111;BME280;10216;42.658;23.248;2023-07-29T12:14:56;93516.38;;;44.56;19.47
20111;BME280;10216;42.658;23.248;2023-07-29T12:17:21;93510.34;;;45.09;20.35
20111;BME280;10216;42.658;23.248;2023-07-29T12:19:46;93515.72;;;45.05;19.24
20111;BME280;10216;42.658;23.248;2023-07-29T12:22:17;93505.47;;;43.63;19.41
20111;BME280;10216;42.658;23.248;2023-07-29T12:24:43;93488.22;;;42.49;21.56
20111;BME280;10216;42.658;23.248;2023-07-29T12:27:13;93498.25;;;41.59;22.83
20111;BME280;10216;42.658;23.248;2023-07-29T12:29:43;93498.59;;;41.57;22.15
20111;BME280;10216;42.658;23.248;2023-07-29T12:32:09;93477.69;;;40.79;22.01
20111;BME280;10216;42.658;23.248;2023-07-29T12:34:36;93482.34;;;40.20;23.01
20111;BME280;10216;42.658;23.248;2023-07-29T12:37:03;93486.91;;;40.36;22.77
20111;BME280;10216;42.658;23.248;2023-07-29T12:39:32;93482.94;;;39.91;23.33
20111;BME280;10216;42.658;23.248;2023-07-29T12:41:59;93480.38;;;39.13;23.00
20111;BME280;10216;42.658;23.248;2023-07-29T12:44:35;93482.72;;;38.98;24.77
20111;BME280;10216;42.658;23.248;2023-07-29T12:47:02;93480.81;;;38.40;24.03
20111;BME280;10216;42.658;23.248;2023-07-29T12:49:28;93478.59;;;37.62;23.29
20111;BME280;10216;42.658;23.248;2023-07-29T12:51:55;93484.44;;;37.27;25.18
20111;BME280;10216;42.658;23.248;2023-07-29T13:06:46;93463.97;;;35.75;25.10